Time;durP1;ratioP1;P1;durP2;ratioP2;P2;SDS_P1;SDS_P2;PMS_P1;PMS_P2;Temp;Humidity;BMP_temperature;BMP_pressure;BME280_temperature;BME280_humidity;BME280_pressure;Samples;Min_cycle;Max_cycle;Signal;HPM_P1;HPM_P2
2022/10/04 00:01:53;;;;;;;10.70;6.57;;;6.00;99.90;;;;;;4967620;28;20547;-73
2022/10/04 00:04:41;;;;;;;9.53;6.63;;;5.90;99.90;;;;;;4978521;28;20787;-71
2022/10/04 00:07:21;;;;;;;9.10;7.10;;;6.00;99.90;;;;;;4968758;28;20425;-72
2022/10/04 00:09:47;;;;;;;12.23;7.07;;;5.90;99.90;;;;;;4973114;28;20492;-72
2022/10/04 00:12:32;;;;;;;9.33;7.23;;;6.00;99.90;;;;;;4983702;28;20885;-72
2022/10/04 00:15:05;;;;;;;10.30;7.60;;;5.90;99.90;;;;;;4975499;28;20181;-72
2022/10/04 00:17:34;;;;;;;10.53;6.63;;;5.80;99.90;;;;;;4981813;28;20426;-72
2022/10/04 00:20:01;;;;;;;8.53;6.57;;;5.80;99.90;;;;;;4978553;28;21044;-72
2022/10/04 00:22:31;;;;;;;11.20;7.23;;;5.90;99.90;;;;;;4981249;28;20447;-72
2022/10/04 00:25:16;;;;;;;10.40;6.57;;;5.80;99.90;;;;;;4977575;28;20523;-73
2022/10/04 00:28:25;;;;;;;9.03;6.37;;;5.80;99.90;;;;;;4972747;28;20425;-72
2022/10/04 00:31:09;;;;;;;7.60;6.23;;;5.80;99.90;;;;;;4977608;28;20758;-72
2022/10/04 00:33:35;;;;;;;8.13;6.03;;;5.80;99.90;;;;;;4982883;28;20424;-72
2022/10/04 00:36:23;;;;;;;10.60;7.80;;;5.80;99.90;;;;;;4977719;28;20412;-72
2022/10/04 00:39:03;;;;;;;7.50;6.63;;;5.70;99.90;;;;;;4968240;28;20182;-72
2022/10/04 00:41:47;;;;;;;13.17;7.10;;;5.70;99.90;;;;;;4974739;28;20542;-72
2022/10/04 00:44:52;;;;;;;8.37;7.10;;;5.70;99.90;;;;;;4978619;28;20915;-72
2022/10/04 00:47:30;;;;;;;9.60;6.30;;;5.70;99.90;;;;;;4976965;28;20428;-72
2022/10/04 00:50:24;;;;;;;11.60;7.03;;;5.60;99.90;;;;;;4978153;28;20419;-72
2022/10/04 00:52:55;;;;;;;11.47;6.23;;;5.60;99.90;;;;;;4956697;28;20441;-72
2022/10/04 00:55:26;;;;;;;8.30;7.00;;;5.50;99.90;;;;;;4975467;28;20423;-72
2022/10/04 00:57:58;;;;;;;9.50;7.47;;;5.60;99.90;;;;;;4972859;28;20421;-72
2022/10/04 02:33:49;;;;;;;11.23;7.73;;;5.00;99.90;;;;;;4991190;28;20467;-71
2022/10/04 02:36:16;;;;;;;9.33;7.47;;;5.00;99.90;;;;;;4996261;28;20446;-71
2022/10/04 02:38:47;;;;;;;12.40;7.30;;;5.00;99.90;;;;;;4980696;28;20491;-71
2022/10/04 02:41:35;;;;;;;10.07;7.23;;;5.00;99.90;;;;;;4993408;28;20446;-71
2022/10/04 02:44:12;;;;;;;9.30;6.93;;;5.00;99.90;;;;;;4988801;28;20940;-72
2022/10/04 02:46:52;;;;;;;12.40;7.00;;;5.00;99.90;;;;;;4989943;28;20791;-71
2022/10/04 02:49:30;;;;;;;13.20;7.40;;;4.90;99.90;;;;;;4988322;28;20422;-69
2022/10/04 02:52:02;;;;;;;7.70;6.00;;;4.90;99.90;;;;;;4993357;28;20682;-71
2022/10/04 02:54:56;;;;;;;15.00;8.00;;;4.90;99.90;;;;;;4993066;28;20430;-72
2022/10/04 02:57:22;;;;;;;10.73;7.60;;;4.90;99.90;;;;;;4993904;28;20735;-72
2022/10/04 02:59:49;;;;;;;11.23;7.73;;;4.80;99.90;;;;;;4993345;28;20795;-72
2022/10/04 03:02:25;;;;;;;10.70;8.70;;;4.90;99.90;;;;;;4993165;28;20905;-73
2022/10/04 03:04:53;;;;;;;10.87;7.90;;;4.90;99.90;;;;;;4992356;28;20441;-72
2022/10/04 03:07:19;;;;;;;10.80;7.50;;;5.00;99.90;;;;;;4989751;28;20401;-72
2022/10/04 03:09:45;;;;;;;11.70;7.30;;;4.90;99.90;;;;;;4986906;28;20418;-72
2022/10/04 03:12:12;;;;;;;11.00;7.97;;;4.90;99.90;;;;;;4992998;28;20435;-72
2022/10/04 03:14:38;;;;;;;11.50;7.77;;;4.80;99.90;;;;;;4992183;28;20603;-73
2022/10/04 03:17:06;;;;;;;14.63;7.93;;;4.80;99.90;;;;;;4988149;28;20421;-74
2022/10/04 03:19:33;;;;;;;9.30;6.33;;;4.80;99.90;;;;;;4986593;28;20425;-72
2022/10/04 03:22:07;;;;;;;11.80;6.83;;;4.90;99.90;;;;;;4988718;28;20917;-73
2022/10/04 03:24:55;;;;;;;15.60;7.60;;;4.80;99.90;;;;;;4986306;28;20429;-73
2022/10/04 03:27:25;;;;;;;12.33;7.63;;;4.90;99.90;;;;;;4992591;28;20459;-72
2022/10/04 03:29:52;;;;;;;13.60;7.73;;;4.90;99.90;;;;;;4985035;28;20816;-72
2022/10/04 03:32:19;;;;;;;10.43;7.37;;;4.90;99.90;;;;;;4988354;28;20474;-73
2022/10/04 03:35:01;;;;;;;16.53;8.30;;;4.90;99.90;;;;;;4986353;28;20462;-73
2022/10/04 03:37:30;;;;;;;12.17;7.20;;;4.90;99.90;;;;;;4992827;28;20520;-72
2022/10/04 03:39:57;;;;;;;11.73;7.90;;;4.80;99.90;;;;;;4986011;28;20809;-73
2022/10/04 03:42:26;;;;;;;13.90;7.50;;;4.90;99.90;;;;;;4988674;28;20505;-73
2022/10/04 03:44:55;;;;;;;12.60;8.17;;;4.80;99.90;;;;;;4985049;28;20930;-74
2022/10/04 03:47:31;;;;;;;11.07;8.97;;;4.90;99.90;;;;;;4988739;28;20505;-72
2022/10/04 03:50:01;;;;;;;10.77;8.23;;;4.90;99.90;;;;;;4986825;28;20863;-72
2022/10/04 03:52:31;;;;;;;15.37;8.37;;;4.90;99.90;;;;;;4992208;28;20561;-73
2022/10/04 03:55:01;;;;;;;15.00;8.03;;;4.90;99.90;;;;;;4990917;28;20777;-72
2022/10/04 03:57:28;;;;;;;11.03;7.03;;;4.90;99.90;;;;;;4987449;28;20936;-72
2022/10/04 03:59:54;;;;;;;12.43;7.30;;;4.90;99.90;;;;;;4992615;28;20510;-72
2022/10/04 04:02:39;;;;;;;11.27;8.20;;;4.90;99.90;;;;;;4992058;28;20474;-72
2022/10/04 04:05:23;;;;;;;9.90;8.17;;;4.90;99.90;;;;;;4985721;28;20412;-72
2022/10/04 04:07:59;;;;;;;11.23;7.33;;;4.90;99.90;;;;;;4990170;28;20410;-72
2022/10/04 04:10:32;;;;;;;14.73;7.00;;;4.90;99.90;;;;;;4990168;28;20388;-72
2022/10/04 04:13:05;;;;;;;9.97;7.83;;;4.90;99.90;;;;;;4987144;28;20503;-72
2022/10/04 04:15:33;;;;;;;15.17;8.40;;;4.90;99.90;;;;;;4989688;28;20424;-72
2022/10/04 04:18:02;;;;;;;9.37;7.87;;;5.00;99.90;;;;;;4981192;28;20847;-72
2022/10/04 04:20:32;;;;;;;14.13;8.53;;;5.00;99.90;;;;;;4989220;28;20512;-72
2022/10/04 04:23:10;;;;;;;14.00;7.57;;;5.00;99.90;;;;;;4991598;28;20508;-72
2022/10/04 04:25:38;;;;;;;11.67;8.57;;;4.90;99.90;;;;;;4989098;28;21042;-72
2022/10/04 04:28:27;;;;;;;10.77;7.50;;;4.90;99.90;;;;;;4987150;28;20423;-72
2022/10/04 04:31:20;;;;;;;9.53;8.20;;;4.90;99.90;;;;;;4987666;28;20426;-71
2022/10/04 04:33:59;;;;;;;11.00;7.30;;;4.90;99.90;;;;;;4978996;28;20434;-72
2022/10/04 04:36:29;;;;;;;10.70;7.83;;;4.90;99.90;;;;;;4990060;28;20501;-71
2022/10/04 04:41:51;;;;;;;11.93;8.43;;;5.00;99.90;;;;;;4985348;28;20434;-72
2022/10/04 04:44:17;;;;;;;12.87;8.40;;;4.90;99.90;;;;;;4991747;28;20446;-72
2022/10/04 04:46:46;;;;;;;18.43;9.50;;;5.00;99.90;;;;;;4991958;28;20229;-72
2022/10/04 04:49:17;;;;;;;12.73;9.40;;;4.90;99.90;;;;;;4987585;28;20445;-73
2022/10/04 04:51:50;;;;;;;14.20;9.10;;;4.90;99.90;;;;;;4977930;28;21016;-71
2022/10/04 04:54:22;;;;;;;16.73;10.83;;;4.90;99.90;;;;;;4991842;28;20434;-71
2022/10/04 04:56:51;;;;;;;17.47;9.33;;;5.00;99.90;;;;;;4991775;28;20390;-72
2022/10/04 04:59:19;;;;;;;15.40;8.90;;;5.00;99.90;;;;;;4990565;28;20492;-72
2022/10/04 05:01:47;;;;;;;15.23;8.60;;;5.00;99.90;;;;;;4991751;28;20902;-72
2022/10/04 05:04:12;;;;;;;14.83;9.20;;;5.00;99.90;;;;;;4987907;28;20441;-72
2022/10/04 05:06:48;;;;;;;14.07;8.73;;;5.00;99.90;;;;;;4985304;28;20487;-71
2022/10/04 05:09:30;;;;;;;15.47;11.80;;;5.00;99.90;;;;;;4989653;28;20205;-72
2022/10/04 05:12:06;;;;;;;16.87;12.80;;;5.00;99.90;;;;;;4982634;28;20435;-72
2022/10/04 05:14:34;;;;;;;13.23;9.30;;;5.00;99.90;;;;;;4994451;28;20804;-71
2022/10/04 05:16:59;;;;;;;12.27;9.80;;;5.00;99.90;;;;;;4995607;28;20903;-71
2022/10/04 05:19:31;;;;;;;15.40;10.03;;;5.00;99.90;;;;;;4990239;28;20431;-70
2022/10/04 05:22:01;;;;;;;13.37;9.40;;;5.00;99.90;;;;;;4985928;28;20226;-71
2022/10/04 05:24:26;;;;;;;10.23;8.70;;;5.00;99.90;;;;;;4988074;28;20430;-71
2022/10/04 05:27:01;;;;;;;15.00;9.23;;;5.10;99.90;;;;;;4994679;28;20951;-71
2022/10/04 05:29:31;;;;;;;15.07;9.40;;;5.10;99.90;;;;;;5006560;28;20687;-70
2022/10/04 05:32:04;;;;;;;12.20;9.00;;;5.20;99.90;;;;;;4993410;28;20969;-71
2022/10/04 05:34:39;;;;;;;17.40;9.67;;;5.10;99.90;;;;;;4992225;28;20427;-71
2022/10/04 05:37:28;;;;;;;10.63;8.40;;;5.20;99.90;;;;;;4988582;28;20423;-71
2022/10/04 05:40:12;;;;;;;14.80;9.30;;;5.30;99.90;;;;;;4990953;28;20433;-71
2022/10/04 05:42:44;;;;;;;11.00;7.90;;;5.30;99.90;;;;;;4994318;28;20799;-71
2022/10/04 05:45:22;;;;;;;10.60;8.80;;;5.40;99.90;;;;;;4986742;28;20567;-71
2022/10/04 05:47:51;;;;;;;15.50;9.30;;;5.40;99.90;;;;;;4987846;28;20424;-71
2022/10/04 05:50:42;;;;;;;11.50;9.50;;;5.50;99.90;;;;;;4985672;28;20420;-71
2022/10/04 05:53:32;;;;;;;14.87;10.00;;;5.60;99.90;;;;;;4990842;28;20442;-71
2022/10/04 05:56:29;;;;;;;12.47;8.13;;;5.70;99.90;;;;;;4982755;28;20420;-70
2022/10/04 05:59:15;;;;;;;11.03;7.87;;;5.80;99.90;;;;;;4994608;28;20420;-71
2022/10/04 06:01:46;;;;;;;14.00;9.10;;;5.90;99.90;;;;;;4993284;28;20580;-71
2022/10/04 06:04:24;;;;;;;13.20;9.10;;;6.00;99.90;;;;;;4988907;28;20495;-71
2022/10/04 06:07:01;;;;;;;11.50;9.30;;;6.10;99.90;;;;;;4992765;28;20482;-71
2022/10/04 06:09:52;;;;;;;11.83;8.77;;;6.20;99.90;;;;;;4991280;28;20424;-71
2022/10/04 06:12:26;;;;;;;15.73;10.07;;;6.30;99.90;;;;;;4990181;28;20518;-71
2022/10/04 06:15:02;;;;;;;13.13;8.80;;;6.50;99.90;;;;;;4987695;28;20413;-71
2022/10/04 06:17:52;;;;;;;12.00;8.20;;;6.60;99.90;;;;;;4992585;28;20832;-71
2022/10/04 06:20:53;;;;;;;12.37;9.20;;;6.80;99.90;;;;;;4990316;28;20494;-72
2022/10/04 06:23:22;;;;;;;11.27;8.20;;;7.10;99.90;;;;;;4988724;28;20436;-72
2022/10/04 06:25:57;;;;;;;9.50;8.40;;;7.40;99.90;;;;;;4987424;28;20490;-70
2022/10/04 06:28:40;;;;;;;13.33;9.87;;;7.70;99.90;;;;;;4994178;28;20478;-71
2022/10/04 06:31:23;;;;;;;9.80;8.77;;;7.70;99.90;;;;;;4993407;28;20460;-71
2022/10/04 06:34:13;;;;;;;10.53;9.30;;;7.70;99.90;;;;;;4982666;28;20506;-71
2022/10/04 06:37:11;;;;;;;12.33;10.07;;;7.70;99.90;;;;;;4986713;28;20447;-72
2022/10/04 06:40:25;;;;;;;9.53;7.90;;;7.70;99.90;;;;;;4983248;28;20945;-71
2022/10/04 06:43:24;;;;;;;10.77;8.67;;;7.70;99.90;;;;;;4966728;28;20456;-71
2022/10/04 06:46:04;;;;;;;11.03;9.10;;;7.80;99.90;;;;;;4979580;28;20536;-70
2022/10/04 06:49:02;;;;;;;10.60;8.37;;;7.90;99.90;;;;;;4992179;28;20433;-71
2022/10/04 06:51:55;;;;;;;9.80;8.20;;;8.00;99.90;;;;;;4981117;28;20453;-71
2022/10/04 06:54:53;;;;;;;10.67;8.87;;;8.20;99.90;;;;;;4989074;28;20428;-71
2022/10/04 06:57:31;;;;;;;14.17;9.80;;;8.40;99.90;;;;;;4988652;28;20424;-71
2022/10/04 07:00:08;;;;;;;14.00;9.57;;;8.50;99.90;;;;;;4993585;28;20956;-71
2022/10/04 07:02:42;;;;;;;13.00;9.00;;;8.60;99.90;;;;;;4991239;28;20499;-71
2022/10/04 07:05:29;;;;;;;7.77;6.97;;;8.80;99.90;;;;;;4988849;28;20924;-70
2022/10/04 07:08:31;;;;;;;10.47;8.07;;;8.90;99.90;;;;;;4989607;28;20922;-71
2022/10/04 07:11:20;;;;;;;16.93;7.90;;;9.10;99.90;;;;;;4979282;28;20437;-71
2022/10/04 07:14:03;;;;;;;11.87;8.20;;;9.20;99.90;;;;;;4993490;28;20467;-71
2022/10/04 07:16:45;;;;;;;8.73;7.83;;;9.30;99.90;;;;;;4990673;28;20422;-71
2022/10/04 07:19:22;;;;;;;15.13;8.80;;;9.40;99.90;;;;;;4988536;28;20840;-71
2022/10/04 07:22:06;;;;;;;11.10;8.03;;;9.40;99.90;;;;;;4989891;28;20473;-71
2022/10/04 07:24:50;;;;;;;9.90;7.93;;;9.40;99.90;;;;;;4987697;28;20425;-71
2022/10/04 07:27:22;;;;;;;15.97;8.30;;;9.50;99.90;;;;;;4993910;28;20500;-70
2022/10/04 07:29:54;;;;;;;19.63;9.23;;;9.50;99.90;;;;;;4991965;28;20413;-71
2022/10/04 07:32:30;;;;;;;9.60;8.20;;;9.50;99.90;;;;;;4988755;28;20445;-70
2022/10/04 07:35:04;;;;;;;21.73;9.93;;;9.60;99.90;;;;;;4986212;28;20416;-72
2022/10/04 07:37:43;;;;;;;17.87;8.80;;;9.70;99.90;;;;;;4988898;28;20469;-72
2022/10/04 07:40:28;;;;;;;11.13;7.77;;;9.70;99.90;;;;;;4988619;28;20465;-72
2022/10/04 07:43:03;;;;;;;11.20;7.20;;;9.80;99.90;;;;;;4991046;28;20924;-71
2022/10/04 07:45:31;;;;;;;8.20;7.40;;;9.90;99.90;;;;;;4991691;28;20431;-71
2022/10/04 07:48:25;;;;;;;18.30;8.80;;;10.00;99.90;;;;;;4983837;28;20998;-71
2022/10/04 07:51:17;;;;;;;11.30;8.63;;;10.10;99.90;;;;;;4987682;28;20464;-71
2022/10/04 07:54:09;;;;;;;16.57;8.77;;;10.20;99.90;;;;;;4977779;28;20429;-71
2022/10/04 07:56:39;;;;;;;15.20;9.03;;;10.20;99.90;;;;;;4991580;28;20415;-71
2022/10/04 07:59:42;;;;;;;13.70;8.27;;;10.20;99.90;;;;;;4991810;28;20847;-71
2022/10/04 08:02:21;;;;;;;14.37;8.43;;;10.30;99.90;;;;;;4982644;28;20547;-71
2022/10/04 08:04:55;;;;;;;14.90;8.50;;;10.40;99.90;;;;;;4983024;28;20915;-71
2022/10/04 08:07:31;;;;;;;15.63;9.37;;;10.40;99.90;;;;;;4987051;28;20848;-71
2022/10/04 08:10:15;;;;;;;14.47;9.53;;;10.50;99.90;;;;;;4986407;28;20842;-71
2022/10/04 08:12:46;;;;;;;18.43;9.20;;;10.70;99.90;;;;;;4991866;28;20452;-72
2022/10/04 08:15:37;;;;;;;13.17;9.20;;;10.80;99.90;;;;;;4989850;28;20418;-71
2022/10/04 08:18:28;;;;;;;15.90;9.10;;;11.00;99.90;;;;;;4991933;28;20831;-71
2022/10/04 08:21:05;;;;;;;16.10;8.07;;;11.10;99.90;;;;;;4988440;28;20465;-70
2022/10/04 08:23:42;;;;;;;17.27;9.10;;;11.30;99.90;;;;;;4991981;28;20433;-71
2022/10/04 08:26:32;;;;;;;25.63;9.50;;;11.40;99.90;;;;;;4985369;28;20518;-71
2022/10/04 08:32:22;;;;;;;12.60;8.20;;;11.80;99.90;;;;;;4980825;28;20457;-72
2022/10/04 08:35:19;;;;;;;15.73;8.37;;;12.10;99.90;;;;;;4989444;28;20792;-71
2022/10/04 08:38:21;;;;;;;8.47;7.00;;;12.40;99.90;;;;;;4990140;28;20420;-72
2022/10/04 08:41:37;;;;;;;11.00;7.77;;;12.80;99.90;;;;;;4987863;28;20465;-72
2022/10/04 08:44:34;;;;;;;11.90;6.43;;;13.10;99.90;;;;;;4987015;28;20468;-72
2022/10/04 08:47:30;;;;;;;20.23;7.83;;;13.10;99.90;;;;;;4984718;28;20411;-72
2022/10/04 08:50:02;;;;;;;13.07;6.17;;;13.50;99.90;;;;;;4982594;28;20787;-72
2022/10/04 08:52:46;;;;;;;11.40;7.27;;;13.80;99.90;;;;;;4985254;28;20454;-72
2022/10/04 08:55:40;;;;;;;8.30;6.30;;;13.90;99.90;;;;;;4991730;28;20508;-73
2022/10/04 08:58:32;;;;;;;8.13;6.10;;;14.10;99.90;;;;;;4987021;28;20771;-73
2022/10/04 09:01:35;;;;;;;7.37;5.70;;;14.30;99.90;;;;;;4985277;28;20477;-72
2022/10/04 09:04:30;;;;;;;6.70;5.70;;;15.00;99.90;;;;;;4991733;28;20425;-72
2022/10/04 09:07:24;;;;;;;12.80;5.57;;;15.40;99.90;;;;;;4978705;28;20418;-72
2022/10/04 09:10:47;;;;;;;7.20;5.57;;;15.60;99.90;;;;;;4980920;28;20418;-72
2022/10/04 09:13:30;;;;;;;7.77;5.00;;;15.90;99.90;;;;;;4907023;29;20498;-72
2022/10/04 09:16:22;;;;;;;8.57;5.57;;;16.20;99.90;;;;;;4898568;29;20433;-71
2022/10/04 09:18:59;;;;;;;6.47;5.60;;;16.40;99.90;;;;;;4971862;28;20512;-70
2022/10/04 09:21:42;;;;;;;7.10;5.40;;;16.70;99.90;;;;;;4991211;28;20464;-70
2022/10/04 09:24:33;;;;;;;6.67;5.13;;;16.70;99.90;;;;;;4986153;28;20769;-70
2022/10/04 09:27:11;;;;;;;7.43;5.83;;;17.10;99.90;;;;;;4978778;28;20417;-70
2022/10/04 09:30:13;;;;;;;5.90;4.70;;;17.40;99.90;;;;;;4991336;28;20414;-71
2022/10/04 09:33:08;;;;;;;7.33;4.80;;;17.60;99.90;;;;;;4988765;28;20962;-70
2022/10/04 09:36:10;;;;;;;5.13;4.47;;;18.00;99.90;;;;;;4984120;28;20422;-71
2022/10/04 09:38:41;;;;;;;6.00;4.73;;;18.50;99.90;;;;;;4990908;28;20450;-71
2022/10/04 09:41:46;;;;;;;8.00;4.97;;;18.30;99.90;;;;;;4986455;28;20468;-70
2022/10/04 09:44:33;;;;;;;6.90;5.90;;;18.40;99.90;;;;;;4990004;28;20435;-71
2022/10/04 09:47:36;;;;;;;8.60;4.07;;;18.90;99.90;;;;;;4977738;28;20749;-71
2022/10/04 09:50:39;;;;;;;8.23;4.13;;;19.20;99.90;;;;;;4986060;28;20457;-71
2022/10/04 09:53:19;;;;;;;7.53;4.17;;;19.30;99.90;;;;;;4983421;28;20501;-71
2022/10/04 09:56:19;;;;;;;4.70;3.97;;;19.30;99.90;;;;;;4990450;28;20410;-71
2022/10/04 09:59:07;;;;;;;8.23;4.50;;;19.10;99.90;;;;;;4988953;28;20476;-71
2022/10/04 10:01:51;;;;;;;5.13;3.80;;;19.00;99.90;;;;;;4993231;28;20459;-71
2022/10/04 10:04:58;;;;;;;5.73;3.77;;;19.00;99.90;;;;;;4995642;28;20414;-71
2022/10/04 10:07:42;;;;;;;10.30;4.03;;;19.00;99.90;;;;;;4993489;28;20916;-71
2022/10/04 10:13:48;;;;;;;7.17;3.73;;;19.20;99.90;;;;;;4992150;28;20468;-71
2022/10/04 10:16:32;;;;;;;6.20;3.37;;;18.90;99.90;;;;;;4990473;28;20442;-71
2022/10/04 10:19:19;;;;;;;5.00;3.50;;;19.20;99.90;;;;;;4992004;28;20513;-70
2022/10/04 10:22:20;;;;;;;9.47;3.47;;;19.20;99.90;;;;;;4987436;28;20454;-72
2022/10/04 10:25:10;;;;;;;3.00;2.80;;;19.70;99.90;;;;;;4981097;28;20513;-70
2022/10/04 10:27:52;;;;;;;4.23;3.50;;;20.10;99.90;;;;;;4982276;28;20992;-71
2022/10/04 10:30:41;;;;;;;3.00;2.50;;;20.30;99.90;;;;;;4987880;28;20418;-71
2022/10/04 10:33:25;;;;;;;9.23;3.03;;;20.40;99.90;;;;;;4993899;28;20484;-71
2022/10/04 10:36:18;;;;;;;6.80;2.50;;;20.60;99.90;;;;;;4992788;28;20501;-70
2022/10/04 10:38:50;;;;;;;4.40;2.20;;;20.60;99.90;;;;;;4990186;28;20510;-71
2022/10/04 10:41:44;;;;;;;5.80;3.00;;;20.60;99.90;;;;;;4992598;28;20846;-71
2022/10/04 10:44:45;;;;;;;4.57;3.03;;;20.60;99.90;;;;;;4993356;28;20422;-70
2022/10/04 10:47:42;;;;;;;3.80;2.93;;;20.70;99.90;;;;;;4990715;28;20423;-71
2022/10/04 10:50:57;;;;;;;2.37;2.17;;;20.40;99.90;;;;;;4982664;28;20411;-71
2022/10/04 10:53:52;;;;;;;9.03;2.63;;;20.60;99.90;;;;;;4987176;28;20437;-71
2022/10/04 10:56:54;;;;;;;3.33;2.37;;;20.50;99.90;;;;;;4989387;28;20907;-71
2022/10/04 10:59:19;;;;;;;4.00;2.63;;;20.70;99.90;;;;;;4967769;28;20730;-71
2022/10/04 11:02:04;;;;;;;3.90;2.37;;;20.70;99.90;;;;;;4993315;28;20616;-71
2022/10/04 11:05:00;;;;;;;4.10;2.83;;;20.60;99.90;;;;;;4993593;28;20172;-71
2022/10/04 11:07:52;;;;;;;3.43;2.77;;;20.30;99.90;;;;;;4983648;28;20450;-71
2022/10/04 11:10:48;;;;;;;5.00;2.27;;;20.20;99.90;;;;;;4991298;28;20499;-71
2022/10/04 11:13:13;;;;;;;7.37;2.63;;;20.20;99.90;;;;;;4988543;28;20993;-72
2022/10/04 11:16:00;;;;;;;5.03;2.00;;;20.30;99.90;;;;;;4986491;28;20497;-71
2022/10/04 11:19:01;;;;;;;3.60;2.23;;;20.80;99.90;;;;;;4993011;28;20283;-71
2022/10/04 11:21:35;;;;;;;3.87;2.83;;;20.70;99.90;;;;;;4990944;28;20462;-68
2022/10/04 11:24:43;;;;;;;6.07;4.00;;;20.60;99.90;;;;;;4993036;28;20504;-70
2022/10/04 11:27:27;;;;;;;6.07;2.87;;;20.30;99.90;;;;;;4986834;28;20450;-71
2022/10/04 11:30:15;;;;;;;3.13;2.60;;;20.10;99.90;;;;;;4979183;28;20417;-72
2022/10/04 11:33:23;;;;;;;3.93;3.57;;;20.50;99.90;;;;;;4984513;28;20447;-71
2022/10/04 11:35:58;;;;;;;5.40;3.53;;;20.60;99.90;;;;;;4983645;28;20461;-73
2022/10/04 11:38:50;;;;;;;4.07;2.90;;;20.40;99.90;;;;;;4987097;28;20418;-71
2022/10/04 11:41:39;;;;;;;5.07;3.40;;;20.30;99.90;;;;;;4989361;28;20458;-71
2022/10/04 11:44:18;;;;;;;4.33;2.60;;;20.40;99.90;;;;;;4987816;28;20423;-71
2022/10/04 11:47:08;;;;;;;3.47;3.17;;;20.40;99.90;;;;;;4992672;28;20414;-72
2022/10/04 11:49:46;;;;;;;7.53;3.20;;;20.10;99.90;;;;;;4992718;28;20431;-70
2022/10/04 11:52:49;;;;;;;7.17;3.70;;;19.80;99.90;;;;;;4984494;28;21097;-72
2022/10/04 11:55:41;;;;;;;7.23;2.90;;;19.40;99.90;;;;;;4981035;28;20430;-71
2022/10/04 11:58:18;;;;;;;7.00;3.30;;;19.80;99.90;;;;;;4987797;28;20410;-72
2022/10/04 12:01:32;;;;;;;5.23;3.17;;;19.80;99.90;;;;;;4982066;28;20454;-71
2022/10/04 12:04:14;;;;;;;6.20;3.07;;;19.80;99.90;;;;;;4992136;28;20421;-71
2022/10/04 12:07:02;;;;;;;5.20;3.17;;;20.10;99.90;;;;;;4988808;28;20414;-72
2022/10/04 12:09:43;;;;;;;4.83;2.83;;;20.30;99.90;;;;;;4991685;28;20414;-71
2022/10/04 12:12:53;;;;;;;3.43;2.67;;;20.70;99.90;;;;;;4991779;28;20492;-72
2022/10/04 12:15:31;;;;;;;4.03;2.03;;;20.50;99.90;;;;;;4974439;28;20431;-71
2022/10/04 12:18:25;;;;;;;3.77;2.60;;;20.30;99.90;;;;;;4991482;28;20454;-71
2022/10/04 12:21:21;;;;;;;2.53;2.20;;;20.10;99.90;;;;;;4981666;28;20461;-71
2022/10/04 12:24:07;;;;;;;3.20;2.30;;;19.90;99.90;;;;;;4990134;28;20407;-71
2022/10/04 12:27:02;;;;;;;3.10;2.80;;;20.10;99.90;;;;;;4987461;28;20418;-71
2022/10/04 12:29:54;;;;;;;3.20;2.57;;;20.00;99.90;;;;;;4988810;28;20462;-71
2022/10/04 12:32:55;;;;;;;2.67;2.03;;;19.90;99.90;;;;;;4988526;28;20508;-71
2022/10/04 12:35:53;;;;;;;4.20;3.33;;;19.90;99.90;;;;;;4982431;28;20525;-71
2022/10/04 12:38:45;;;;;;;3.70;3.10;;;19.80;99.90;;;;;;4985173;28;20406;-70
2022/10/04 12:41:29;;;;;;;8.03;2.80;;;19.70;99.90;;;;;;4991958;28;20462;-71
2022/10/04 12:44:25;;;;;;;6.30;2.57;;;19.80;99.90;;;;;;4983699;28;20431;-71
2022/10/04 12:47:00;;;;;;;5.10;3.80;;;19.90;99.90;;;;;;4989749;28;20410;-71
2022/10/04 12:49:41;;;;;;;5.60;3.20;;;19.90;99.90;;;;;;4990203;28;20960;-71
2022/10/04 12:52:34;;;;;;;5.17;2.90;;;19.90;99.90;;;;;;4981312;28;20438;-71
2022/10/04 12:56:10;;;;;;;11.70;2.97;;;19.80;99.90;;;;;;4988791;28;20916;-72
2022/10/04 12:58:47;;;;;;;5.20;2.60;;;19.80;99.90;;;;;;4957466;28;20434;-70
2022/10/04 13:01:39;;;;;;;8.80;2.70;;;19.90;99.90;;;;;;4991359;28;20465;-73
2022/10/04 13:04:15;;;;;;;4.20;2.90;;;20.00;99.90;;;;;;4984485;28;20525;-73
2022/10/04 13:06:50;;;;;;;2.83;2.63;;;20.00;99.90;;;;;;4983784;28;20785;-73
2022/10/04 13:09:25;;;;;;;6.10;3.00;;;19.70;99.90;;;;;;4988362;28;20468;-72
2022/10/04 13:12:43;;;;;;;3.97;2.30;;;19.50;99.90;;;;;;4989571;28;20446;-74
2022/10/04 13:15:39;;;;;;;3.83;2.20;;;19.40;99.90;;;;;;4972673;28;20447;-72
2022/10/04 13:18:04;;;;;;;4.90;3.30;;;19.30;99.90;;;;;;4977446;28;20423;-72
2022/10/04 13:21:05;;;;;;;6.40;3.87;;;19.20;99.90;;;;;;4991481;28;20806;-73
2022/10/04 13:23:58;;;;;;;7.37;3.00;;;19.20;99.90;;;;;;4985609;28;20200;-72
2022/10/04 13:26:34;;;;;;;5.73;3.10;;;19.10;99.90;;;;;;4985892;28;20451;-72
2022/10/04 13:29:31;;;;;;;3.57;2.73;;;19.10;99.90;;;;;;4991511;28;20411;-74
2022/10/04 13:32:14;;;;;;;4.40;2.67;;;19.20;99.90;;;;;;4994022;28;20512;-72
2022/10/04 13:34:46;;;;;;;3.40;3.10;;;19.20;99.90;;;;;;4991313;28;20524;-72
2022/10/04 13:37:40;;;;;;;5.87;3.00;;;19.20;99.90;;;;;;4991143;28;20791;-72
2022/10/04 13:40:24;;;;;;;3.30;2.80;;;19.30;99.90;;;;;;4993265;28;20418;-73
2022/10/04 13:43:32;;;;;;;4.63;2.47;;;19.30;99.90;;;;;;4988638;28;20478;-72
2022/10/04 13:46:01;;;;;;;9.53;3.17;;;19.30;99.90;;;;;;4977787;28;20423;-73
2022/10/04 13:48:39;;;;;;;3.60;2.83;;;19.30;99.90;;;;;;4989962;28;20481;-73
2022/10/04 13:51:45;;;;;;;4.17;2.90;;;19.20;99.90;;;;;;4988765;28;20446;-72
2022/10/04 13:57:21;;;;;;;5.20;2.33;;;19.10;99.90;;;;;;4992368;28;20428;-72
2022/10/04 14:00:05;;;;;;;11.43;2.80;;;19.10;99.90;;;;;;4994874;28;20781;-72
2022/10/04 14:02:47;;;;;;;6.93;3.10;;;19.10;99.90;;;;;;4993411;28;20805;-72
2022/10/04 14:05:49;;;;;;;2.47;2.30;;;19.00;99.90;;;;;;4990928;28;20964;-72
2022/10/04 14:09:09;;;;;;;3.33;2.13;;;19.10;99.90;;;;;;4992016;28;20426;-73
2022/10/04 14:12:12;;;;;;;3.33;2.20;;;19.10;99.90;;;;;;4927033;29;20504;-73
2022/10/04 14:14:50;;;;;;;9.33;2.50;;;19.10;99.90;;;;;;4994504;28;20472;-72
2022/10/04 14:17:58;;;;;;;3.97;2.60;;;19.10;99.90;;;;;;4992891;28;20422;-74
2022/10/04 14:21:01;;;;;;;5.67;2.43;;;19.00;99.90;;;;;;4992167;28;20969;-72
2022/10/04 14:24:01;;;;;;;4.73;2.70;;;19.00;99.90;;;;;;4988764;28;20427;-72
2022/10/04 14:26:36;;;;;;;5.87;2.60;;;19.00;99.90;;;;;;4987619;28;20415;-72
2022/10/04 14:29:25;;;;;;;3.07;2.33;;;19.00;99.90;;;;;;4994239;28;20601;-71
2022/10/04 14:31:56;;;;;;;6.33;2.77;;;19.00;99.90;;;;;;4985543;28;20958;-72
2022/10/04 14:34:38;;;;;;;5.53;2.20;;;19.00;99.90;;;;;;4982198;28;20535;-72
2022/10/04 14:37:37;;;;;;;3.23;2.33;;;19.00;99.90;;;;;;4987723;28;20413;-73
2022/10/04 14:40:39;;;;;;;3.60;1.83;;;19.00;99.90;;;;;;4992580;28;20545;-72
2022/10/04 14:43:38;;;;;;;8.27;2.60;;;19.00;99.90;;;;;;4989766;28;20414;-73
2022/10/04 14:46:05;;;;;;;4.50;2.00;;;19.00;99.90;;;;;;4982011;28;20418;-73
2022/10/04 14:49:15;;;;;;;3.50;1.80;;;19.00;99.90;;;;;;4988786;28;20928;-72
2022/10/04 14:51:52;;;;;;;8.70;2.40;;;18.90;99.90;;;;;;4962851;28;20940;-72
2022/10/04 14:54:35;;;;;;;2.17;1.87;;;19.00;99.90;;;;;;4995884;28;20970;-73
2022/10/04 14:57:42;;;;;;;2.37;2.17;;;18.90;99.90;;;;;;4999027;28;20788;-73
2022/10/04 15:00:17;;;;;;;3.20;2.30;;;18.90;99.90;;;;;;4942061;28;20940;-75
2022/10/04 15:03:03;;;;;;;4.87;2.60;;;18.90;99.90;;;;;;4989878;28;20442;-73
2022/10/04 15:05:51;;;;;;;7.40;3.43;;;18.90;99.90;;;;;;4997129;28;20411;-72
2022/10/04 15:08:20;;;;;;;4.23;2.20;;;18.80;99.90;;;;;;4988757;28;20416;-71
2022/10/04 15:10:57;;;;;;;5.37;2.43;;;18.80;99.90;;;;;;5005176;28;20517;-71
2022/10/04 15:13:44;;;;;;;3.20;2.03;;;18.70;99.90;;;;;;4992471;28;20414;-74
2022/10/04 15:16:32;;;;;;;4.23;2.23;;;18.80;99.90;;;;;;4991379;28;20842;-73
2022/10/04 15:19:02;;;;;;;6.80;2.47;;;18.70;99.90;;;;;;4984789;28;20426;-73
2022/10/04 15:21:48;;;;;;;6.87;2.20;;;18.70;99.90;;;;;;4990880;28;20462;-73
2022/10/04 15:24:26;;;;;;;3.67;2.70;;;18.70;99.90;;;;;;4992680;28;20454;-73
2022/10/04 15:27:19;;;;;;;4.17;2.10;;;18.70;99.90;;;;;;4986248;28;20477;-72
2022/10/04 15:30:16;;;;;;;5.27;2.53;;;18.70;99.90;;;;;;4987756;28;20432;-72
2022/10/04 15:33:00;;;;;;;5.47;3.00;;;18.60;99.90;;;;;;4984896;28;20445;-72
2022/10/04 15:35:35;;;;;;;3.10;2.53;;;18.70;99.90;;;;;;5005196;28;20508;-72
2022/10/04 15:38:13;;;;;;;4.07;3.40;;;18.60;99.90;;;;;;4994293;28;20464;-74
2022/10/04 15:41:00;;;;;;;6.03;2.70;;;18.60;99.90;;;;;;5005829;28;20453;-72
2022/10/04 15:43:42;;;;;;;3.30;1.90;;;18.60;99.90;;;;;;4993402;28;20423;-74
2022/10/04 15:46:30;;;;;;;3.43;2.37;;;18.60;99.90;;;;;;4991581;28;20414;-72
2022/10/04 15:49:15;;;;;;;4.40;2.60;;;18.60;99.90;;;;;;4984188;28;20492;-73
2022/10/04 15:52:02;;;;;;;3.30;2.20;;;18.50;99.90;;;;;;4989140;28;20434;-76
2022/10/04 15:55:01;;;;;;;5.00;2.27;;;18.50;99.90;;;;;;4991294;28;20422;-71
2022/10/04 15:57:47;;;;;;;5.23;3.00;;;18.40;99.90;;;;;;4992726;28;20430;-70